createdAt,value
2023-11-12T00:01:26.942Z,1.60
2023-11-12T00:06:29.037Z,1.50
2023-11-12T00:11:34.920Z,3.23
2023-11-12T00:16:35.856Z,4.45
2023-11-12T00:21:36.810Z,5.53
2023-11-12T00:26:38.285Z,2.72
2023-11-12T00:31:39.173Z,3.25
2023-11-12T00:36:43.078Z,3.17
2023-11-12T00:41:44.405Z,3.97
2023-11-12T00:46:45.515Z,3.67
2023-11-12T00:51:47.038Z,3.72
2023-11-12T00:56:47.878Z,3.50
2023-11-12T01:01:48.962Z,3.72
2023-11-12T01:06:49.780Z,2.12
2023-11-12T01:11:50.780Z,2.37
2023-11-12T01:16:51.670Z,2.30
2023-11-12T01:21:52.606Z,2.78
2023-11-12T01:26:54.219Z,3.37
2023-11-12T01:31:55.072Z,5.65
2023-11-12T01:36:55.893Z,6.53
2023-11-12T01:41:57.356Z,5.70
2023-11-12T01:46:58.219Z,5.53
2023-11-12T01:51:59.095Z,5.47
2023-11-12T01:57:00.978Z,5.82
2023-11-12T02:02:03.122Z,5.00
2023-11-12T02:07:05.437Z,4.80
2023-11-12T02:12:07.045Z,5.07
2023-11-12T02:17:07.940Z,4.45
2023-11-12T02:22:10.199Z,4.80
2023-11-12T02:27:11.040Z,4.70
2023-11-12T02:32:11.896Z,4.00
2023-11-12T02:37:13.934Z,4.10
2023-11-12T02:42:17.302Z,2.97
2023-11-12T02:47:18.123Z,3.47
2023-11-12T02:52:19.317Z,3.65
2023-11-12T02:57:23.274Z,3.55
2023-11-12T03:02:24.249Z,3.67
2023-11-12T03:07:25.130Z,3.60
2023-11-12T03:12:27.852Z,3.45
2023-11-12T03:17:28.753Z,3.30
2023-11-12T03:22:31.125Z,3.00
2023-11-12T03:27:35.587Z,3.17
2023-11-12T03:32:36.464Z,3.45
2023-11-12T03:37:38.066Z,3.37
2023-11-12T03:42:39.012Z,3.20
2023-11-12T03:47:39.891Z,3.50
2023-11-12T03:52:41.153Z,4.20
2023-11-12T03:57:42.005Z,5.03
2023-11-12T04:02:42.884Z,4.53
2023-11-12T04:07:44.165Z,4.82
2023-11-12T04:12:45.758Z,4.12
2023-11-12T04:17:46.633Z,4.65
2023-11-12T04:22:47.501Z,5.07
2023-11-12T04:27:48.545Z,5.75
2023-11-12T04:32:49.665Z,6.47
2023-11-12T04:37:50.750Z,7.30
2023-11-12T04:42:52.464Z,6.60
2023-11-12T04:47:53.289Z,6.25
2023-11-12T04:52:54.100Z,6.55
2023-11-12T04:57:54.904Z,7.95
2023-11-12T05:02:55.804Z,7.28
2023-11-12T05:07:56.742Z,6.68
2023-11-12T05:12:57.923Z,6.50
2023-11-12T05:18:05.131Z,7.03
2023-11-12T05:23:06.012Z,7.85
2023-11-12T05:28:08.132Z,6.68
2023-11-12T05:33:09.064Z,6.55
2023-11-12T05:38:09.961Z,5.70
2023-11-12T05:43:11.256Z,5.60
2023-11-12T05:48:12.480Z,5.55
2023-11-12T05:53:13.304Z,5.45
2023-11-12T05:58:14.095Z,5.72
2023-11-12T06:03:15.073Z,5.70
2023-11-12T06:08:16.041Z,6.60
2023-11-12T06:13:17.154Z,6.20
2023-11-12T06:18:18.024Z,7.12
2023-11-12T06:23:18.896Z,8.43
2023-11-12T06:28:20.652Z,8.95
2023-11-12T06:33:23.096Z,8.32
2023-11-12T06:38:24.088Z,5.85
2023-11-12T06:43:24.987Z,12.55
2023-11-12T06:48:25.890Z,10.48
2023-11-12T06:53:26.744Z,9.50
2023-11-12T06:58:27.943Z,8.05
2023-11-12T07:03:28.844Z,9.30
2023-11-12T07:08:30.933Z,12.07
2023-11-12T07:13:32.601Z,10.57
2023-11-12T07:18:42.021Z,10.45
2023-11-12T07:23:51.321Z,9.48
2023-11-12T07:28:53.066Z,9.73
2023-11-12T07:33:54.275Z,9.68
2023-11-12T07:38:55.090Z,8.88
2023-11-12T07:43:56.288Z,9.85
2023-11-12T07:48:57.313Z,8.80
2023-11-12T07:53:58.102Z,8.82
2023-11-12T07:58:59.421Z,8.80
2023-11-12T08:04:00.340Z,9.52
2023-11-12T08:09:01.493Z,10.60
2023-11-12T08:14:02.382Z,8.75
2023-11-12T08:19:03.358Z,9.32
2023-11-12T08:24:05.379Z,13.62
2023-11-12T08:29:10.793Z,13.35
2023-11-12T08:34:12.035Z,14.05
2023-11-12T08:39:13.626Z,18.33
2023-11-12T08:44:14.693Z,26.48
2023-11-12T08:49:15.544Z,15.80
2023-11-12T08:54:16.364Z,18.25
2023-11-12T08:59:17.242Z,14.55
2023-11-12T09:04:18.215Z,28.95
2023-11-12T09:09:19.143Z,20.20
2023-11-12T09:14:21.753Z,23.20
2023-11-12T09:19:22.859Z,21.13
2023-11-12T09:24:23.972Z,20.83
2023-11-12T09:29:24.796Z,17.65
2023-11-12T09:34:27.352Z,15.13
2023-11-12T09:39:28.190Z,18.27
2023-11-12T09:44:32.801Z,16.55
2023-11-12T09:49:33.658Z,17.65
2023-11-12T09:54:40.469Z,17.02
2023-11-12T09:59:41.436Z,16.73
2023-11-12T10:04:43.218Z,19.52
2023-11-12T10:09:44.236Z,21.70
2023-11-12T10:14:46.791Z,19.02
2023-11-12T10:19:57.723Z,16.87
2023-11-12T10:24:59.360Z,17.08
2023-11-12T10:30:17.985Z,15.02
2023-11-12T10:35:26.729Z,16.73
2023-11-12T10:40:28.228Z,13.90
2023-11-12T10:45:30.259Z,14.00
2023-11-12T10:50:31.596Z,14.20
2023-11-12T10:55:34.156Z,15.90
2023-11-12T11:00:36.985Z,14.55
2023-11-12T11:05:37.853Z,14.07
2023-11-12T11:10:38.771Z,15.13
2023-11-12T11:15:55.670Z,19.35
2023-11-12T11:21:30.138Z,15.43
2023-11-12T11:26:41.069Z,15.95
2023-11-12T11:32:16.429Z,11.93
2023-11-12T11:37:19.725Z,10.35
2023-11-12T11:42:21.399Z,10.55
2023-11-12T11:47:24.905Z,10.27
2023-11-12T11:52:28.371Z,9.25
2023-11-12T11:57:30.009Z,9.45
2023-11-12T12:02:42.182Z,10.02
2023-11-12T12:07:46.367Z,7.53
2023-11-12T12:12:48.171Z,6.25
2023-11-12T12:17:49.312Z,7.50
2023-11-12T12:22:52.867Z,10.15
2023-11-12T12:27:54.143Z,7.05
2023-11-12T12:32:55.808Z,7.50
2023-11-12T12:38:06.566Z,7.28
2023-11-12T12:43:10.700Z,7.12
2023-11-12T12:48:12.370Z,6.72
2023-11-12T12:53:18.448Z,6.55
2023-11-12T12:58:23.170Z,6.57
2023-11-12T13:03:26.921Z,5.60
2023-11-12T13:08:29.087Z,5.75
2023-11-12T13:13:31.283Z,5.30
2023-11-12T13:18:32.194Z,5.60
2023-11-12T13:23:36.256Z,10.30
2023-11-12T13:28:37.072Z,4.57
2023-11-12T13:33:38.244Z,5.37
2023-11-12T13:38:39.078Z,5.93
2023-11-12T13:43:40.017Z,5.05
2023-11-12T13:48:41.390Z,11.60
2023-11-12T13:53:42.725Z,7.22
2023-11-12T13:58:46.933Z,8.30
2023-11-12T14:03:47.952Z,6.10
2023-11-12T14:08:49.635Z,5.05
2023-11-12T14:13:51.277Z,5.07
2023-11-12T14:18:53.937Z,4.93
2023-11-12T14:23:55.859Z,5.43
2023-11-12T14:28:56.724Z,6.93
2023-11-12T14:33:57.565Z,10.30
2023-11-12T14:38:59.985Z,9.40
2023-11-12T14:44:02.524Z,7.47
2023-11-12T14:49:05.861Z,7.95
2023-11-12T14:59:08.720Z,6.50
2023-11-12T15:04:12.603Z,6.62
2023-11-12T15:09:15.516Z,7.20
2023-11-12T15:14:16.395Z,6.87
2023-11-12T15:19:17.392Z,7.07
2023-11-12T15:24:18.211Z,7.35
2023-11-12T15:29:23.336Z,7.50
2023-11-12T15:34:24.172Z,8.13
2023-11-12T15:39:25.831Z,7.93
2023-11-12T15:44:26.684Z,9.27
2023-11-12T15:49:29.266Z,9.50
2023-11-12T15:54:30.142Z,11.17
2023-11-12T15:59:31.870Z,9.63
2023-11-12T16:04:33.490Z,10.13
2023-11-12T16:09:34.397Z,10.52
2023-11-12T16:14:36.695Z,10.88
2023-11-12T16:19:37.763Z,9.17
2023-11-12T16:24:41.673Z,20.40
2023-11-12T16:29:45.228Z,12.13
2023-11-12T16:34:46.168Z,9.43
2023-11-12T16:39:49.057Z,9.77
2023-11-12T16:44:50.673Z,9.68
2023-11-12T16:49:53.545Z,11.35
2023-11-12T16:54:55.225Z,13.95
2023-11-12T16:59:56.054Z,10.80
2023-11-12T17:04:57.213Z,15.73
2023-11-12T17:09:58.233Z,12.23
2023-11-12T17:15:01.736Z,12.82
2023-11-12T17:20:03.800Z,12.60
2023-11-12T17:25:07.649Z,35.58
2023-11-12T17:30:09.689Z,14.23
2023-11-12T17:35:12.434Z,13.05
2023-11-12T17:40:13.725Z,13.62
2023-11-12T17:45:16.060Z,12.02
2023-11-12T17:50:18.488Z,12.47
2023-11-12T17:55:20.294Z,14.60
2023-11-12T18:00:22.380Z,12.43
2023-11-12T18:05:26.623Z,13.25
2023-11-12T18:10:27.683Z,12.15
2023-11-12T18:15:29.210Z,12.37
2023-11-12T18:20:32.130Z,11.88
2023-11-12T18:25:33.768Z,12.27
2023-11-12T18:30:39.419Z,13.95
2023-11-12T18:35:49.493Z,15.57
2023-11-12T18:40:51.212Z,12.50
2023-11-12T18:45:56.387Z,13.25
2023-11-12T18:50:57.632Z,12.93
2023-11-12T18:56:00.293Z,12.63
2023-11-12T19:06:03.227Z,12.13
2023-11-12T19:11:04.659Z,11.25
2023-11-12T19:16:05.920Z,11.05
2023-11-12T19:21:06.934Z,10.05
2023-11-12T19:26:08.696Z,9.25
2023-11-12T19:31:13.583Z,8.45
2023-11-12T19:36:20.243Z,7.20
2023-11-12T19:41:22.403Z,9.23
2023-11-12T19:46:23.352Z,7.00
2023-11-12T19:51:27.380Z,5.18
2023-11-12T19:56:31.102Z,4.05
2023-11-12T20:01:33.058Z,4.07
2023-11-12T20:06:35.396Z,3.85
2023-11-12T20:11:38.561Z,3.67
2023-11-12T20:16:45.357Z,3.70
2023-11-12T20:21:46.543Z,3.40
2023-11-12T20:26:49.515Z,3.05
2023-11-12T20:31:56.917Z,3.00
2023-11-12T20:36:59.410Z,2.62
2023-11-12T20:42:00.236Z,3.58
2023-11-12T20:47:01.627Z,3.15
2023-11-12T20:52:02.802Z,3.55
2023-11-12T20:57:06.481Z,1.80
2023-11-12T21:02:14.654Z,2.25
2023-11-12T21:07:23.815Z,2.17
2023-11-12T21:12:24.873Z,3.12
2023-11-12T21:17:25.695Z,1.77
2023-11-12T21:22:26.638Z,4.30
2023-11-12T21:27:27.489Z,2.08
2023-11-12T21:32:28.330Z,2.50
2023-11-12T21:37:30.384Z,2.05
2023-11-12T21:42:31.165Z,2.00
2023-11-12T21:47:32.057Z,5.97
2023-11-12T21:52:33.893Z,2.30
2023-11-12T21:57:34.731Z,3.95
2023-11-12T22:02:35.860Z,2.20
2023-11-12T22:07:36.692Z,2.22
2023-11-12T22:12:39.210Z,2.90
2023-11-12T22:17:40.694Z,3.12
2023-11-12T22:22:43.224Z,4.32
2023-11-12T22:27:49.033Z,2.70
2023-11-12T22:32:53.835Z,3.12
2023-11-12T22:37:54.619Z,2.65
2023-11-12T22:42:55.546Z,2.90
2023-11-12T22:47:56.665Z,2.60
2023-11-12T22:52:57.650Z,3.08
2023-11-12T22:57:58.484Z,3.33
2023-11-12T23:02:59.450Z,2.90
2023-11-12T23:08:01.054Z,3.22
2023-11-12T23:13:02.874Z,4.05
2023-11-12T23:18:04.499Z,3.90
2023-11-12T23:23:06.233Z,3.87
2023-11-12T23:28:09.554Z,4.40
2023-11-12T23:33:10.961Z,4.78
2023-11-12T23:38:11.766Z,4.47
2023-11-12T23:43:12.629Z,4.53
2023-11-12T23:48:13.441Z,5.18
2023-11-12T23:53:14.629Z,5.22
2023-11-12T23:58:16.168Z,5.00
